createdAt,value
2022-11-16T05:09:32.270Z,11.81
2022-11-16T05:10:33.216Z,11.79
2022-11-16T05:11:30.881Z,11.79
2022-11-16T05:12:31.838Z,11.75
2022-11-16T05:13:31.851Z,11.74
2022-11-16T05:14:41.171Z,11.74
2022-11-16T05:15:42.785Z,11.74
2022-11-16T05:16:42.138Z,11.75
2022-11-16T05:17:42.133Z,11.75
2022-11-16T05:18:42.146Z,11.75
2022-11-16T05:19:42.117Z,11.75
2022-11-16T05:20:42.116Z,11.75
2022-11-16T05:21:42.104Z,11.74
2022-11-16T05:22:42.088Z,11.75
2022-11-16T05:23:42.092Z,11.70
2022-11-16T05:24:42.082Z,11.70
2022-11-16T05:25:42.051Z,11.70
2022-11-16T05:26:48.630Z,11.70
2022-11-16T05:27:42.070Z,11.70
2022-11-16T05:28:42.008Z,11.72
2022-11-16T05:29:41.992Z,11.74
2022-11-16T05:30:41.964Z,11.74
2022-11-16T05:31:41.989Z,11.74
2022-11-16T05:32:41.972Z,11.74
2022-11-16T05:33:41.930Z,11.72
2022-11-16T05:34:41.918Z,11.69
2022-11-16T05:35:42.014Z,11.69
2022-11-16T05:36:41.929Z,11.69
2022-11-16T05:37:41.892Z,11.64
2022-11-16T05:38:41.891Z,11.59
2022-11-16T05:39:41.929Z,11.57
2022-11-16T05:40:41.882Z,11.56
2022-11-16T05:41:41.881Z,11.56
2022-11-16T05:42:41.885Z,11.53
2022-11-16T05:43:41.837Z,11.51
2022-11-16T05:44:41.808Z,11.51
2022-11-16T05:45:41.819Z,11.49
2022-11-16T05:46:41.820Z,11.48
2022-11-16T05:47:41.800Z,11.48
2022-11-16T05:48:41.797Z,11.46
2022-11-16T05:49:41.782Z,11.46
2022-11-16T05:50:43.142Z,11.42
2022-11-16T05:51:41.756Z,11.44
2022-11-16T05:52:41.715Z,11.46
2022-11-16T05:53:41.745Z,11.48
2022-11-16T05:54:41.698Z,11.49
2022-11-16T05:55:41.712Z,11.48
2022-11-16T05:56:41.723Z,11.46
2022-11-16T05:57:41.694Z,11.46
2022-11-16T05:58:41.679Z,11.45
2022-11-16T05:59:41.653Z,11.42
2022-11-16T06:00:41.645Z,11.38
2022-11-16T06:01:41.620Z,11.33
2022-11-16T06:02:41.723Z,11.28
2022-11-16T06:03:41.622Z,11.26
2022-11-16T06:04:41.601Z,11.20
2022-11-16T06:05:41.839Z,11.17
2022-11-16T06:06:41.605Z,11.16
2022-11-16T06:07:41.548Z,11.13
2022-11-16T06:08:41.555Z,11.11
2022-11-16T06:09:41.533Z,11.06
2022-11-16T06:10:41.613Z,11.03
2022-11-16T06:11:41.540Z,10.95
2022-11-16T06:12:41.527Z,10.91
2022-11-16T06:13:48.097Z,10.88
2022-11-16T06:14:41.492Z,10.88
2022-11-16T06:15:41.467Z,10.86
2022-11-16T06:16:41.474Z,10.86
2022-11-16T06:17:41.445Z,10.83
2022-11-16T06:18:41.467Z,10.90
2022-11-16T06:19:41.437Z,10.91
2022-11-16T06:20:41.426Z,10.93
2022-11-16T06:21:41.449Z,10.95
2022-11-16T06:22:41.386Z,10.94
2022-11-16T06:23:41.403Z,11.01
2022-11-16T06:24:41.374Z,11.02
2022-11-16T06:25:41.346Z,11.03
2022-11-16T06:26:41.369Z,11.06
2022-11-16T06:27:41.327Z,11.06
2022-11-16T06:28:41.360Z,11.06
2022-11-16T06:29:41.331Z,11.05
2022-11-16T06:30:41.313Z,11.01
2022-11-16T06:31:41.302Z,10.99
2022-11-16T06:32:41.298Z,10.95
2022-11-16T06:33:47.782Z,10.91
2022-11-16T06:34:41.247Z,10.88
2022-11-16T06:35:41.262Z,10.88
2022-11-16T06:36:41.267Z,10.93
2022-11-16T06:37:41.218Z,10.95
2022-11-16T06:38:41.205Z,10.98
2022-11-16T06:39:41.213Z,11.01
2022-11-16T06:40:41.185Z,11.03
2022-11-16T06:41:41.710Z,11.06
2022-11-16T06:42:41.160Z,11.06
2022-11-16T06:43:41.147Z,11.06
2022-11-16T06:44:41.159Z,11.05
2022-11-16T06:45:41.142Z,11.03
2022-11-16T06:46:41.147Z,11.01
2022-11-16T06:47:41.106Z,11.02
2022-11-16T06:48:41.158Z,10.95
2022-11-16T06:49:41.716Z,10.94
2022-11-16T06:50:41.091Z,10.94
2022-11-16T06:51:41.084Z,10.94
2022-11-16T06:52:41.076Z,10.95
2022-11-16T06:53:41.050Z,10.98
2022-11-16T06:54:41.022Z,10.95
2022-11-16T06:55:41.034Z,10.95
2022-11-16T06:56:41.032Z,10.99
2022-11-16T06:57:41.217Z,11.01
2022-11-16T06:58:42.980Z,10.98
2022-11-16T06:59:40.993Z,10.99
2022-11-16T07:00:40.958Z,10.99
2022-11-16T07:01:41.019Z,10.99
2022-11-16T07:02:41.009Z,10.94
2022-11-16T07:03:40.930Z,10.93
2022-11-16T07:04:40.972Z,10.90
2022-11-16T07:05:40.950Z,10.87
2022-11-16T07:06:40.911Z,10.80
2022-11-16T07:07:40.894Z,10.76
2022-11-16T07:08:40.896Z,10.76
2022-11-16T07:09:40.889Z,10.75
2022-11-16T07:10:40.875Z,10.72
2022-11-16T07:11:40.847Z,10.69
2022-11-16T07:12:40.909Z,10.69
2022-11-16T07:13:40.854Z,10.72
2022-11-16T07:14:40.823Z,10.72
2022-11-16T07:15:40.811Z,10.70
2022-11-16T07:16:40.801Z,10.75
2022-11-16T07:17:40.771Z,10.75
2022-11-16T07:18:40.791Z,10.72
2022-11-16T07:19:40.756Z,10.72
2022-11-16T07:20:40.760Z,10.72
2022-11-16T07:21:40.754Z,10.70
2022-11-16T07:22:40.758Z,10.68
2022-11-16T07:23:40.752Z,10.60
2022-11-16T07:24:40.708Z,10.57
2022-11-16T07:25:40.696Z,10.54
2022-11-16T07:26:40.725Z,10.54
2022-11-16T07:27:40.674Z,10.54
2022-11-16T07:28:45.000Z,10.55
2022-11-16T07:29:40.899Z,10.58
2022-11-16T07:30:40.651Z,10.65
2022-11-16T07:31:40.630Z,10.91
2022-11-16T07:32:40.612Z,11.12
2022-11-16T07:33:40.609Z,10.99
2022-11-16T07:34:40.584Z,11.24
2022-11-16T07:35:40.610Z,11.38
2022-11-16T07:36:40.555Z,12.00
2022-11-16T07:37:40.559Z,12.29
2022-11-16T07:38:40.551Z,11.87
2022-11-16T07:39:40.544Z,11.62
2022-11-16T07:40:40.565Z,11.42
2022-11-16T07:41:40.713Z,11.30
2022-11-16T07:42:40.495Z,11.39
2022-11-16T07:43:40.566Z,11.28
2022-11-16T07:44:40.486Z,11.21
2022-11-16T07:45:40.459Z,11.13
2022-11-16T07:46:48.576Z,11.05
2022-11-16T07:47:40.448Z,10.99
2022-11-16T07:48:40.414Z,11.02
2022-11-16T07:49:40.417Z,11.74
2022-11-16T07:50:40.390Z,12.13
2022-11-16T07:51:40.410Z,12.26
2022-11-16T07:52:40.403Z,12.12
2022-11-16T07:53:40.361Z,12.69
2022-11-16T07:54:40.350Z,13.51
2022-11-16T07:55:44.776Z,14.09
2022-11-16T07:56:40.324Z,14.67
2022-11-16T07:57:40.333Z,15.18
2022-11-16T07:58:49.487Z,15.58
2022-11-16T07:59:40.289Z,15.71
2022-11-16T08:00:41.245Z,15.70
2022-11-16T08:01:40.869Z,15.38
2022-11-16T08:02:40.672Z,15.00
2022-11-16T08:03:40.696Z,14.71
2022-11-16T08:04:40.922Z,14.52
2022-11-16T08:05:40.768Z,14.30
2022-11-16T08:06:40.769Z,14.26
2022-11-16T08:07:40.830Z,14.23
2022-11-16T08:08:40.421Z,14.36
2022-11-16T08:09:40.251Z,14.45
2022-11-16T08:10:40.387Z,14.42
2022-11-16T08:11:40.722Z,14.45
2022-11-16T08:12:40.684Z,14.38
2022-11-16T08:13:42.326Z,14.06
2022-11-16T08:14:44.621Z,13.84
2022-11-16T08:15:40.701Z,13.71
2022-11-16T08:16:40.768Z,13.62
2022-11-16T08:17:40.755Z,13.63
2022-11-16T08:18:40.130Z,13.10
2022-11-16T08:19:54.755Z,12.66
2022-11-16T08:20:40.703Z,12.46
2022-11-16T08:21:40.749Z,12.37
2022-11-16T08:22:40.039Z,12.31
2022-11-16T08:23:40.730Z,12.38
2022-11-16T08:24:41.754Z,12.46
2022-11-16T08:25:40.654Z,12.56
2022-11-16T08:26:41.742Z,12.66
2022-11-16T08:27:41.376Z,12.77
2022-11-16T08:28:40.066Z,12.92
2022-11-16T08:29:39.983Z,13.17
2022-11-16T08:30:39.955Z,13.47
2022-11-16T08:31:47.868Z,13.79
2022-11-16T08:32:42.977Z,14.05
2022-11-16T08:33:41.400Z,14.27
2022-11-16T08:34:39.904Z,14.30
2022-11-16T08:35:39.886Z,14.24
2022-11-16T08:36:40.103Z,14.35
2022-11-16T08:37:40.734Z,14.39
2022-11-16T08:38:39.861Z,14.66
2022-11-16T08:39:39.870Z,14.98
2022-11-16T08:40:39.832Z,15.22
2022-11-16T08:41:40.054Z,15.12
2022-11-16T08:42:43.690Z,14.97
2022-11-16T08:43:39.818Z,14.82
2022-11-16T08:44:39.997Z,14.97
2022-11-16T08:45:39.837Z,15.28
2022-11-16T08:46:40.398Z,15.60
2022-11-16T08:47:39.978Z,15.78
2022-11-16T08:48:39.762Z,16.03
2022-11-16T08:49:40.133Z,16.25
2022-11-16T08:51:02.398Z,16.29
2022-11-16T08:51:59.861Z,16.16
2022-11-16T08:52:40.288Z,16.14
2022-11-16T08:53:39.687Z,16.25
2022-11-16T08:54:39.676Z,16.11
2022-11-16T08:55:40.209Z,16.01
2022-11-16T08:56:39.672Z,16.17
2022-11-16T08:57:40.074Z,16.29
2022-11-16T08:58:39.859Z,16.13
2022-11-16T08:59:40.771Z,16.07
2022-11-16T09:00:39.624Z,16.29
2022-11-16T09:01:40.319Z,16.42
2022-11-16T09:02:40.270Z,16.63
2022-11-16T09:03:40.855Z,16.80
2022-11-16T09:04:39.814Z,16.98
2022-11-16T09:05:39.575Z,17.07
2022-11-16T09:06:39.533Z,17.15
2022-11-16T09:07:39.566Z,17.45
2022-11-16T09:08:40.459Z,17.05
2022-11-16T09:09:41.415Z,16.99
2022-11-16T09:10:39.521Z,17.14
2022-11-16T09:11:41.545Z,17.49
2022-11-16T09:12:39.464Z,17.83
2022-11-16T09:14:00.809Z,17.89
2022-11-16T09:14:41.398Z,18.23
2022-11-16T09:15:39.434Z,18.57
2022-11-16T09:16:40.292Z,18.89
2022-11-16T09:17:42.096Z,19.13
2022-11-16T09:18:40.253Z,19.23
2022-11-16T09:19:42.886Z,19.52
2022-11-16T09:20:40.747Z,19.92
2022-11-16T09:21:39.373Z,20.04
2022-11-16T09:22:40.254Z,20.02
2022-11-16T09:23:39.350Z,19.50
2022-11-16T09:24:41.116Z,19.55
2022-11-16T09:25:39.556Z,19.25
2022-11-16T09:26:40.229Z,19.31
2022-11-16T09:27:39.338Z,19.80
2022-11-16T09:28:39.302Z,20.02
2022-11-16T09:29:40.237Z,20.07
2022-11-16T09:30:39.376Z,20.05
2022-11-16T09:31:39.262Z,20.17
2022-11-16T09:32:39.458Z,20.37
2022-11-16T09:33:42.400Z,20.57
2022-11-16T09:34:39.223Z,20.50
2022-11-16T09:35:39.235Z,21.01
2022-11-16T09:36:43.500Z,21.27
2022-11-16T09:37:42.184Z,21.24
2022-11-16T09:39:03.140Z,21.59
2022-11-16T09:39:39.771Z,21.71
2022-11-16T09:40:59.424Z,21.96
2022-11-16T09:41:43.502Z,22.44
2022-11-16T09:42:39.157Z,22.74
2022-11-16T09:43:45.322Z,22.97
2022-11-16T09:44:39.120Z,22.79
2022-11-16T09:45:39.101Z,22.49
2022-11-16T09:46:39.510Z,22.78
2022-11-16T09:47:40.487Z,22.38
2022-11-16T09:48:39.688Z,21.89
2022-11-16T09:49:39.701Z,21.46
2022-11-16T09:50:39.047Z,21.34
2022-11-16T09:51:39.028Z,21.66
2022-11-16T09:52:59.408Z,21.71
2022-11-16T09:53:39.763Z,21.64
2022-11-16T09:54:38.994Z,21.24
2022-11-16T09:55:39.197Z,21.27
2022-11-16T09:56:38.972Z,21.55
2022-11-16T09:57:39.170Z,21.81
2022-11-16T09:58:39.356Z,21.89
2022-11-16T09:59:38.945Z,22.11
2022-11-16T10:00:38.979Z,22.52
2022-11-16T10:01:39.014Z,22.78
2022-11-16T10:02:39.528Z,22.74
2022-11-16T10:03:38.992Z,22.24
2022-11-16T10:04:39.445Z,22.19
2022-11-16T10:05:58.808Z,21.81
2022-11-16T10:06:38.892Z,21.66
2022-11-16T10:07:39.809Z,21.66
2022-11-16T10:08:38.850Z,21.67
2022-11-16T10:09:38.852Z,22.19
2022-11-16T10:10:38.819Z,22.52
2022-11-16T10:11:39.076Z,22.67
2022-11-16T10:12:39.040Z,22.94
2022-11-16T10:13:38.799Z,23.26
2022-11-16T10:14:38.771Z,23.60
2022-11-16T10:15:38.785Z,23.19
2022-11-16T10:16:39.649Z,22.84
2022-11-16T10:17:38.764Z,22.66
2022-11-16T10:18:39.044Z,22.76
2022-11-16T10:19:38.732Z,22.97
2022-11-16T10:20:38.701Z,23.12
2022-11-16T10:21:38.699Z,22.91
2022-11-16T10:22:38.720Z,22.94
2022-11-16T10:23:38.660Z,22.23
2022-11-16T10:24:38.667Z,21.67
2022-11-16T10:25:39.578Z,21.98
2022-11-16T10:26:38.643Z,22.52
2022-11-16T10:27:39.608Z,23.04
2022-11-16T10:28:38.834Z,23.19
2022-11-16T10:29:39.747Z,22.48
2022-11-16T10:30:38.790Z,22.21
2022-11-16T10:31:39.069Z,22.49
2022-11-16T10:32:38.586Z,23.00
2022-11-16T10:33:38.581Z,23.11
2022-11-16T10:34:38.774Z,23.06
2022-11-16T10:35:38.703Z,23.35
2022-11-16T10:36:38.819Z,23.53
2022-11-16T10:37:38.512Z,23.32
2022-11-16T10:38:38.780Z,23.03
2022-11-16T10:39:38.495Z,23.32
2022-11-16T10:40:38.702Z,23.11
2022-11-16T10:41:38.503Z,23.25
2022-11-16T10:42:38.696Z,23.41
2022-11-16T10:43:38.552Z,23.92
2022-11-16T10:44:38.434Z,24.26
2022-11-16T10:45:38.427Z,24.55
2022-11-16T10:46:38.420Z,24.56
2022-11-16T10:47:38.411Z,24.53
2022-11-16T10:48:38.397Z,23.94
2022-11-16T10:49:38.637Z,23.50
2022-11-16T10:50:38.366Z,23.75
2022-11-16T10:51:38.386Z,23.89
2022-11-16T10:52:38.368Z,23.53
2022-11-16T10:53:38.442Z,23.78
2022-11-16T10:54:42.952Z,23.50
2022-11-16T10:55:38.326Z,23.26
2022-11-16T10:56:38.361Z,23.59
2022-11-16T10:57:38.310Z,24.02
2022-11-16T10:58:38.283Z,23.87
2022-11-16T10:59:38.286Z,24.24
2022-11-16T11:00:38.343Z,24.36
2022-11-16T11:01:39.172Z,24.52
2022-11-16T11:02:38.229Z,24.67
2022-11-16T11:03:39.790Z,24.93
2022-11-16T11:04:38.227Z,25.07
2022-11-16T11:05:38.213Z,24.41
2022-11-16T11:06:38.221Z,23.81
2022-11-16T11:07:38.259Z,23.54
2022-11-16T11:08:38.391Z,24.02
2022-11-16T11:09:38.151Z,23.87
2022-11-16T11:10:38.154Z,24.21
2022-11-16T11:11:38.156Z,24.52
2022-11-16T11:12:38.405Z,24.90
2022-11-16T11:13:38.727Z,24.98
2022-11-16T11:14:38.118Z,25.27
2022-11-16T11:15:38.107Z,25.30
2022-11-16T11:16:41.947Z,25.53
2022-11-16T11:17:38.608Z,25.63
2022-11-16T11:18:38.285Z,24.87
2022-11-16T11:19:38.277Z,24.97
2022-11-16T11:20:44.287Z,25.17
2022-11-16T11:21:38.031Z,24.89
2022-11-16T11:22:38.222Z,25.02
2022-11-16T11:23:38.039Z,25.26
2022-11-16T11:24:44.471Z,25.45
2022-11-16T11:25:38.053Z,25.91
2022-11-16T11:26:38.001Z,26.13
2022-11-16T11:27:38.844Z,25.78
2022-11-16T11:28:39.475Z,24.80
2022-11-16T11:29:39.182Z,24.31
2022-11-16T11:30:46.814Z,24.45
2022-11-16T11:31:39.427Z,24.67
2022-11-16T11:32:39.250Z,24.98
2022-11-16T11:33:39.402Z,25.48
2022-11-16T11:34:38.874Z,25.74
2022-11-16T11:35:37.883Z,26.27
2022-11-16T11:36:47.202Z,26.81
2022-11-16T11:37:39.206Z,26.96
2022-11-16T11:38:39.410Z,26.59
2022-11-16T11:42:21.455Z,26.01
2022-11-16T11:43:18.771Z,26.36
2022-11-16T11:44:13.021Z,26.59
2022-11-16T11:45:13.878Z,26.98
2022-11-16T11:46:17.863Z,27.21
2022-11-16T11:48:16.462Z,27.63
2022-11-16T11:49:15.128Z,27.59
2022-11-16T11:50:15.593Z,27.58
2022-11-16T11:51:12.474Z,27.18
2022-11-16T11:52:27.426Z,27.01
2022-11-16T11:53:14.976Z,27.21
2022-11-16T11:54:13.049Z,26.78
2022-11-16T11:55:12.806Z,26.11
2022-11-16T11:56:13.021Z,25.22
2022-11-16T11:57:18.955Z,25.17
2022-11-16T11:58:13.076Z,25.67
2022-11-16T11:59:13.770Z,26.13
2022-11-16T12:00:12.366Z,26.32
2022-11-16T12:01:15.958Z,25.85
2022-11-16T12:02:13.031Z,25.94
2022-11-16T12:03:13.574Z,26.20
2022-11-16T12:04:22.395Z,26.54
2022-11-16T12:05:25.351Z,26.76
2022-11-16T12:06:27.919Z,27.02
2022-11-16T12:07:13.072Z,27.25
2022-11-16T12:08:12.861Z,27.16
2022-11-16T12:09:12.829Z,27.27
2022-11-16T12:10:13.231Z,27.38
2022-11-16T12:11:20.326Z,27.63
2022-11-16T12:12:15.275Z,27.90
2022-11-16T12:13:13.054Z,28.39
2022-11-16T12:14:13.280Z,27.39
2022-11-16T12:15:13.016Z,26.29
2022-11-16T12:16:12.695Z,26.79
2022-11-16T12:17:12.710Z,26.69
2022-11-16T12:18:12.360Z,27.16
2022-11-16T12:19:12.119Z,27.46
2022-11-16T12:20:12.378Z,26.57
2022-11-16T12:21:13.049Z,26.38
2022-11-16T12:22:15.914Z,26.57
2022-11-16T12:23:15.897Z,26.32
2022-11-16T12:24:15.653Z,26.17
2022-11-16T12:25:12.086Z,26.13
2022-11-16T12:26:21.781Z,26.16
2022-11-16T12:27:15.017Z,25.60
2022-11-16T12:28:12.255Z,24.71
2022-11-16T12:29:12.249Z,25.14
2022-11-16T12:30:12.482Z,25.42
2022-11-16T12:31:12.226Z,26.06
2022-11-16T12:32:12.406Z,26.28
2022-11-16T12:33:15.640Z,26.90
2022-11-16T12:34:11.977Z,26.83
2022-11-16T12:35:11.968Z,26.21
2022-11-16T12:36:11.944Z,25.63
2022-11-16T12:37:14.755Z,25.82
2022-11-16T12:38:12.448Z,25.59
2022-11-16T12:39:12.996Z,24.52
2022-11-16T12:40:12.571Z,23.79
2022-11-16T12:41:11.947Z,23.35
2022-11-16T12:42:12.455Z,23.09
2022-11-16T12:43:11.863Z,22.45
2022-11-16T12:44:11.865Z,21.91
2022-11-16T12:45:13.327Z,23.09
2022-11-16T12:46:12.068Z,22.27
2022-11-16T12:47:11.844Z,21.61
2022-11-16T12:48:11.841Z,21.48
2022-11-16T12:49:12.119Z,22.26
2022-11-16T12:50:11.830Z,23.39
2022-11-16T12:51:11.785Z,24.44
2022-11-16T12:52:11.779Z,24.83
2022-11-16T12:53:11.803Z,24.09
2022-11-16T12:54:11.967Z,23.31
2022-11-16T12:55:25.993Z,22.33
2022-11-16T12:56:11.736Z,22.05
2022-11-16T12:57:11.711Z,21.94
2022-11-16T12:58:11.719Z,23.04
2022-11-16T12:59:12.266Z,23.29
2022-11-16T13:00:11.755Z,23.21
2022-11-16T13:01:11.943Z,24.04
2022-11-16T13:02:12.551Z,24.05
2022-11-16T13:03:11.637Z,23.69
2022-11-16T13:04:11.662Z,23.99
2022-11-16T13:05:11.631Z,23.69
2022-11-16T13:06:11.605Z,23.89
2022-11-16T13:07:11.807Z,24.05
2022-11-16T13:08:12.529Z,24.31
2022-11-16T13:09:11.571Z,24.97
2022-11-16T13:10:11.815Z,24.82
2022-11-16T13:11:11.565Z,24.04
2022-11-16T13:12:12.555Z,23.44
2022-11-16T13:13:41.513Z,23.56
2022-11-16T13:14:11.547Z,23.37
2022-11-16T13:15:15.629Z,23.03
2022-11-16T13:16:12.061Z,22.49
2022-11-16T13:17:12.263Z,22.21
2022-11-16T13:18:11.527Z,22.15
2022-11-16T13:19:11.534Z,21.98
2022-11-16T13:20:14.548Z,23.12
2022-11-16T13:21:11.465Z,24.04
2022-11-16T13:22:12.044Z,24.23
2022-11-16T13:23:13.043Z,24.46
2022-11-16T13:24:11.424Z,23.97
2022-11-16T13:25:11.420Z,23.54
2022-11-16T13:26:12.050Z,23.25
2022-11-16T13:27:14.049Z,22.76
2022-11-16T13:28:11.388Z,22.42
2022-11-16T13:29:11.367Z,22.12
2022-11-16T13:30:11.381Z,22.76
2022-11-16T13:31:11.344Z,22.99
2022-11-16T13:32:11.869Z,23.32
2022-11-16T13:33:11.738Z,23.84
2022-11-16T13:34:11.346Z,24.44
2022-11-16T13:35:11.305Z,24.46
2022-11-16T13:36:12.003Z,24.79
2022-11-16T13:37:11.288Z,25.19
2022-11-16T13:38:11.289Z,24.36
2022-11-16T13:39:11.268Z,23.49
2022-11-16T13:40:11.318Z,22.23
2022-11-16T13:41:11.239Z,21.58
2022-11-16T13:42:11.246Z,21.68
2022-11-16T13:43:11.209Z,22.51
2022-11-16T13:44:12.486Z,22.94
2022-11-16T13:45:11.214Z,22.72
2022-11-16T13:46:22.328Z,21.99
2022-11-16T13:47:11.171Z,21.58
2022-11-16T13:48:11.163Z,20.98
2022-11-16T13:49:11.159Z,20.51
2022-11-16T13:50:11.147Z,19.85
2022-11-16T13:51:11.125Z,19.45
2022-11-16T13:52:35.640Z,19.17
2022-11-16T13:54:44.658Z,18.90
2022-11-16T13:55:11.083Z,18.84
2022-11-16T13:56:11.158Z,18.74
2022-11-16T13:57:11.068Z,18.75
2022-11-16T13:58:11.055Z,18.71
2022-11-16T13:59:11.048Z,18.62
2022-11-16T14:00:11.069Z,18.47
2022-11-16T14:01:11.224Z,18.21
2022-11-16T14:02:11.020Z,18.16
2022-11-16T14:03:11.029Z,18.09
2022-11-16T14:04:10.977Z,18.01
2022-11-16T14:05:11.014Z,17.87
2022-11-16T14:06:11.044Z,17.73
2022-11-16T14:07:11.043Z,17.53
2022-11-16T14:08:10.955Z,17.42
2022-11-16T14:09:10.944Z,17.42
2022-11-16T14:10:10.936Z,17.35
2022-11-16T14:11:10.965Z,17.24
2022-11-16T14:12:10.903Z,17.15
2022-11-16T14:13:10.886Z,17.18
2022-11-16T14:14:10.886Z,17.15
2022-11-16T14:15:10.901Z,17.12
2022-11-16T14:16:10.992Z,17.12
2022-11-16T14:17:10.846Z,17.17
2022-11-16T14:18:10.838Z,17.24
2022-11-16T14:19:10.810Z,17.40
2022-11-16T14:20:10.810Z,17.55
2022-11-16T14:21:10.795Z,17.60
2022-11-16T14:22:10.788Z,17.65
2022-11-16T14:23:10.786Z,17.62
2022-11-16T14:24:10.771Z,17.66
2022-11-16T14:25:10.811Z,17.53
2022-11-16T14:26:10.965Z,17.45
2022-11-16T14:27:10.735Z,17.40
2022-11-16T14:28:10.740Z,17.33
2022-11-16T14:29:10.703Z,17.30
2022-11-16T14:30:10.730Z,17.22
2022-11-16T14:31:10.832Z,17.24
2022-11-16T14:32:10.703Z,17.25
2022-11-16T14:33:10.659Z,17.28
2022-11-16T14:34:10.655Z,17.24
2022-11-16T14:35:11.094Z,17.20
2022-11-16T14:36:10.671Z,17.22
2022-11-16T14:37:10.634Z,17.27
2022-11-16T14:38:10.624Z,17.30
2022-11-16T14:39:10.643Z,17.36
2022-11-16T14:40:10.580Z,17.43
2022-11-16T14:41:10.576Z,17.40
2022-11-16T14:42:10.569Z,17.27
2022-11-16T14:43:17.787Z,17.15
2022-11-16T14:44:10.562Z,16.95
2022-11-16T14:45:10.536Z,16.77
2022-11-16T14:46:10.538Z,16.69
2022-11-16T14:47:10.519Z,16.59
2022-11-16T14:48:10.508Z,16.55
2022-11-16T14:49:10.477Z,16.51
2022-11-16T14:50:10.482Z,16.51
2022-11-16T14:51:10.512Z,16.47
2022-11-16T14:52:10.490Z,16.36
2022-11-16T14:53:10.454Z,16.41
2022-11-16T14:54:10.448Z,16.37
2022-11-16T14:55:10.421Z,16.40
2022-11-16T14:56:10.512Z,16.42
2022-11-16T14:57:10.411Z,16.45
2022-11-16T14:58:10.394Z,16.44
2022-11-16T14:59:10.384Z,16.42
2022-11-16T15:00:10.379Z,16.34
2022-11-16T15:01:10.363Z,16.25
2022-11-16T15:02:10.339Z,16.08
2022-11-16T15:03:10.401Z,15.95
2022-11-16T15:04:10.340Z,15.88
2022-11-16T15:05:10.310Z,15.78
2022-11-16T15:06:10.327Z,15.77
2022-11-16T15:07:10.323Z,15.73
2022-11-16T15:08:10.278Z,15.67
2022-11-16T15:09:10.286Z,15.68
2022-11-16T15:10:10.282Z,15.74
2022-11-16T15:11:10.250Z,15.77
2022-11-16T15:12:11.088Z,15.64
2022-11-16T15:13:10.220Z,15.51
2022-11-16T15:14:10.285Z,15.43
2022-11-16T15:15:10.194Z,15.40
2022-11-16T15:16:10.199Z,15.34
2022-11-16T15:17:10.175Z,15.34
2022-11-16T15:18:10.183Z,15.34
2022-11-16T15:19:10.169Z,15.28
2022-11-16T15:20:10.173Z,15.23
2022-11-16T15:21:10.169Z,15.23
2022-11-16T15:22:10.123Z,15.18
2022-11-16T15:24:28.913Z,15.05
2022-11-16T15:25:04.115Z,15.00
2022-11-16T15:26:04.057Z,14.95
2022-11-16T15:27:04.100Z,14.94
2022-11-16T15:28:04.048Z,14.90
2022-11-16T15:29:04.023Z,14.82
2022-11-16T15:30:04.077Z,14.82
2022-11-16T15:31:04.053Z,14.82
2022-11-16T15:32:03.996Z,14.82
2022-11-16T15:33:03.969Z,14.78
2022-11-16T15:34:03.983Z,14.71
2022-11-16T15:35:05.548Z,14.64
2022-11-16T15:36:03.947Z,14.57
2022-11-16T15:37:03.954Z,14.49
2022-11-16T15:38:03.927Z,14.46
2022-11-16T15:39:03.910Z,14.49
2022-11-16T15:40:03.915Z,14.48
2022-11-16T15:41:03.899Z,14.45
2022-11-16T15:42:04.451Z,14.46
2022-11-16T15:43:03.875Z,14.45
2022-11-16T15:44:17.586Z,14.45
2022-11-16T15:45:03.876Z,14.48
2022-11-16T15:46:03.835Z,14.53
2022-11-16T15:47:03.835Z,14.56
2022-11-16T15:48:03.840Z,14.54
2022-11-16T15:49:03.838Z,14.48
2022-11-16T15:50:03.791Z,14.46
2022-11-16T15:51:05.094Z,14.48
2022-11-16T15:52:03.781Z,14.48
2022-11-16T15:53:03.762Z,14.46
2022-11-16T15:54:03.749Z,14.38
2022-11-16T15:55:03.780Z,14.34
2022-11-16T15:56:03.770Z,14.30
2022-11-16T15:57:03.711Z,14.23
2022-11-16T15:58:03.773Z,14.13
2022-11-16T15:59:03.684Z,14.05
2022-11-16T16:00:03.769Z,13.99
2022-11-16T16:01:03.712Z,13.94
2022-11-16T16:02:03.658Z,13.87
2022-11-16T16:03:03.637Z,13.81
2022-11-16T16:04:03.622Z,13.79
2022-11-16T16:05:03.669Z,13.73
2022-11-16T16:06:03.621Z,13.68
2022-11-16T16:07:03.685Z,13.57
2022-11-16T16:08:03.629Z,13.53
2022-11-16T16:09:03.568Z,13.51
2022-11-16T16:10:03.662Z,13.53
2022-11-16T16:11:03.609Z,13.59
2022-11-16T16:12:03.545Z,13.62
2022-11-16T16:13:03.561Z,13.61
2022-11-16T16:14:03.536Z,13.57
2022-11-16T16:15:03.542Z,13.51
2022-11-16T16:16:03.523Z,13.47
2022-11-16T16:17:03.496Z,13.43
2022-11-16T16:18:03.496Z,13.39
2022-11-16T16:19:09.284Z,13.32
2022-11-16T16:20:03.629Z,13.27
2022-11-16T16:21:03.465Z,13.22
2022-11-16T16:22:03.428Z,13.17
2022-11-16T16:23:03.423Z,13.13
2022-11-16T16:24:03.437Z,13.06
2022-11-16T16:25:03.434Z,12.99
2022-11-16T16:26:03.417Z,12.94
2022-11-16T16:27:03.366Z,12.94
2022-11-16T16:28:03.413Z,12.89
2022-11-16T16:29:03.401Z,12.88
2022-11-16T16:30:03.463Z,12.84
2022-11-16T16:31:03.344Z,12.85
2022-11-16T16:32:03.379Z,12.81
2022-11-16T16:33:03.310Z,12.79
2022-11-16T16:34:03.299Z,12.81
2022-11-16T16:35:03.289Z,12.81
2022-11-16T16:36:03.273Z,12.77
2022-11-16T16:37:03.281Z,12.76
2022-11-16T16:38:03.257Z,12.73
2022-11-16T16:39:03.264Z,12.67
2022-11-16T16:40:03.364Z,12.66
2022-11-16T16:41:03.226Z,12.62
2022-11-16T16:42:03.241Z,12.61
2022-11-16T16:43:03.220Z,12.58
2022-11-16T16:44:03.192Z,12.55
2022-11-16T16:45:03.199Z,12.52
2022-11-16T16:46:03.167Z,12.48
2022-11-16T16:47:03.137Z,12.44
2022-11-16T16:48:03.154Z,12.41
2022-11-16T16:49:03.125Z,12.38
2022-11-16T16:50:03.113Z,12.38
2022-11-16T16:51:03.127Z,12.36
2022-11-16T16:52:03.102Z,12.34
2022-11-16T16:53:03.083Z,12.31
2022-11-16T16:54:03.070Z,12.30
2022-11-16T16:55:03.061Z,12.30
2022-11-16T16:56:03.043Z,12.29
2022-11-16T16:57:03.044Z,12.29
2022-11-16T16:58:03.018Z,12.25
2022-11-16T16:59:03.004Z,12.21
2022-11-16T17:00:03.096Z,12.16
2022-11-16T17:01:03.035Z,12.11
2022-11-16T17:02:02.979Z,12.08
2022-11-16T17:03:02.967Z,12.04
2022-11-16T17:04:02.969Z,11.97
2022-11-16T17:05:02.968Z,11.94
2022-11-16T17:06:02.922Z,11.90
2022-11-16T17:07:03.060Z,11.84
2022-11-16T17:08:02.925Z,11.84
2022-11-16T17:09:02.892Z,11.85
2022-11-16T17:10:02.894Z,11.87
2022-11-16T17:11:02.870Z,11.87
2022-11-16T17:12:02.855Z,11.88
2022-11-16T17:13:02.853Z,11.90
2022-11-16T17:14:02.844Z,11.88
2022-11-16T17:15:02.871Z,11.88
2022-11-16T17:16:02.832Z,11.85
2022-11-16T17:17:02.813Z,11.82
2022-11-16T17:18:02.806Z,11.78
2022-11-16T17:19:02.793Z,11.78
2022-11-16T17:20:02.773Z,11.74
2022-11-16T17:21:02.776Z,11.74
2022-11-16T17:22:02.772Z,11.74
2022-11-16T17:23:02.745Z,11.70
2022-11-16T17:24:02.748Z,11.74
2022-11-16T17:25:02.724Z,11.70
2022-11-16T17:26:02.712Z,11.69
2022-11-16T17:27:02.718Z,11.64
2022-11-16T17:28:02.705Z,11.62
2022-11-16T17:29:02.675Z,11.59
2022-11-16T17:30:02.655Z,11.62
2022-11-16T17:31:02.696Z,11.59
2022-11-16T17:32:02.664Z,11.62
2022-11-16T17:33:02.645Z,11.60
2022-11-16T17:34:02.610Z,11.60
2022-11-16T17:35:02.663Z,11.60
2022-11-16T17:36:02.607Z,11.62
2022-11-16T17:37:02.632Z,11.60
2022-11-16T17:38:02.570Z,11.59
2022-11-16T17:39:02.585Z,11.57
2022-11-16T17:40:02.600Z,11.54
2022-11-16T17:41:02.551Z,11.51
2022-11-16T17:42:02.538Z,11.48
2022-11-16T17:43:02.505Z,11.44
2022-11-16T17:44:02.507Z,11.41
2022-11-16T17:45:02.485Z,11.41
2022-11-16T17:46:02.477Z,11.39
2022-11-16T17:47:02.479Z,11.42
2022-11-16T17:48:02.608Z,11.41
2022-11-16T17:49:02.445Z,11.39
2022-11-16T17:50:02.426Z,11.39
2022-11-16T17:51:02.424Z,11.39
2022-11-16T17:52:02.412Z,11.36
2022-11-16T17:53:02.434Z,11.35
2022-11-16T17:54:02.394Z,11.36
2022-11-16T17:55:02.384Z,11.35
2022-11-16T17:56:02.359Z,11.35
2022-11-16T17:57:02.350Z,11.35
2022-11-16T17:58:02.353Z,11.31
2022-11-16T17:59:02.366Z,11.30
2022-11-16T18:00:02.316Z,11.30
2022-11-16T18:01:02.363Z,11.31
2022-11-16T18:02:02.369Z,11.30
2022-11-16T18:03:02.290Z,11.27
2022-11-16T18:04:02.286Z,11.21
2022-11-16T18:05:02.268Z,11.17
2022-11-16T18:06:02.261Z,11.13
2022-11-16T18:07:02.319Z,11.11